Flight Track Log - Related Links

Times and Time Zones

All times are in EDT time to prevent confusion due to time zone crossing. See the SKW4564 flight status page for this flight to view local times or setup timezone preferences in your user account.

Time Position Orientation Groundspeed Altitude Reporting Facility
EDT Latitude Longitude Course Direction KTS MPH feet Rate Location/Type
Thu 02:43:07 PM 33.9303 -118.4814 338° Northwest 207 238 3,200  Level Los Angeles Center
Thu 02:44:09 PM 33.9247 -118.5650 265° West 246 283 5,500 2,468 Climbing Los Angeles Center
Thu 02:45:00 PM 34.1470 -118.6265 22° Northeast  Level FlightAware Approximate
Thu 02:45:11 PM 33.9464 -118.6547 286° West 286 329 8,300  Level Los Angeles Center
Thu 02:46:00 PM 34.2612 -118.6000 North  Level FlightAware Approximate
Thu 02:46:13 PM 34.0206 -118.6967 335° Northwest 309 356 9,200  Level Los Angeles Center
Thu 02:47:00 PM 34.3709 -118.6438 338° Northwest  Level FlightAware Approximate
Thu 02:47:15 PM 34.1033 -118.6592 21° North 307 353 12,000  Level Los Angeles Center
Thu 02:48:00 PM 34.4804 -118.6985 338° Northwest  Level FlightAware Approximate
Thu 02:48:17 PM 34.1786 -118.6553 North 321 369 14,200  Level Los Angeles Center
Thu 02:49:19 PM 34.2953 -118.6789 351° North 354 407 16,000 1,790 Climbing Los Angeles Center
Thu 02:50:21 PM 34.4019 -118.7000 351° North 386 444 17,900 1,676 Climbing Los Angeles Center
Thu 02:51:35 PM 34.5106 -118.7214 351° North 396 456 19,800 1,708 Climbing Los Angeles Center
Thu 02:52:38 PM 34.6381 -118.7803 339° North 409 471 21,800 1,776 Climbing Los Angeles Center
Thu 02:53:40 PM 34.7450 -118.8331 338° Northwest 414 476 23,500 1,306 Climbing Los Angeles Center
Thu 02:54:42 PM 34.8575 -118.8803 341° North 429 494 24,500 1,015 Climbing Los Angeles Center
Thu 02:55:56 PM 34.9911 -118.9258 344° North 445 512 25,800 1,168 Climbing Los Angeles Center
Thu 02:57:11 PM 35.1414 -118.9761 345° North 466 536 27,400 1,522 Climbing Los Angeles Center
Thu 02:58:14 PM 35.3175 -119.0381 344° North 471 542 29,300 1,440 Climbing Los Angeles Center
Thu 02:59:16 PM 35.4433 -119.0817 344° North 473 544 30,400 1,113 Climbing Los Angeles Center
Thu 03:00:18 PM 35.5706 -119.1331 342° North 479 551 31,600 968 Climbing Los Angeles Center
Thu 03:01:20 PM 35.6683 -119.1761 340° North 474 545 32,400 968 Climbing Los Angeles Center
Thu 03:02:22 PM 35.8189 -119.2414 341° North 477 549 33,600 1,125 Climbing Los Angeles Center
Thu 03:03:28 PM 35.9672 -119.3078 340° North 484 557 34,800 984 Climbing Oakland Center
Thu 03:04:30 PM 36.0942 -119.3642 340° North 487 560 35,700 581 Climbing Oakland Center
Thu 03:05:32 PM 36.2214 -119.4203 340° North 488 562 36,000 146 Climbing Oakland Center
Thu 03:06:33 PM 36.3506 -119.4778 340° North 492 566 36,000  Level Oakland Center
Thu 03:07:35 PM 36.5047 -119.5478 340° North 493 567 36,000  Level Oakland Center
Thu 03:08:37 PM 36.6325 -119.6058 340° North 491 565 36,000  Level Oakland Center
Thu 03:09:38 PM 36.7603 -119.6625 340° North 490 564 36,000 -49 Level Oakland Center
Thu 03:10:40 PM 36.8881 -119.7203 340° North 489 563 35,900  Descending Oakland Center
Thu 03:11:42 PM 37.0167 -119.7789 340° North 492 566 36,000 49 Climbing Oakland Center
Thu 03:12:43 PM 37.1514 -119.8411 340° North 492 566 36,000  Level Oakland Center
Thu 03:13:45 PM 37.2803 -119.8981 341° North 492 566 36,000  Level Oakland Center
Thu 03:14:46 PM 37.4081 -119.9569 340° North 490 564 36,000  Level Oakland Center
Thu 03:15:48 PM 37.5369 -120.0133 341° North 490 564 36,000  Level Oakland Center
Thu 03:16:50 PM 37.6994 -120.0536 349° North 496 571 36,000  Level Oakland Center
Thu 03:17:51 PM 37.8333 -120.0922 347° North 494 568 36,000  Level Oakland Center
Thu 03:18:53 PM 37.9681 -120.1286 348° North 495 570 36,000  Level Oakland Center
Thu 03:19:55 PM 38.0997 -120.1669 347° North 491 565 36,000  Level Oakland Center
Thu 03:20:56 PM 38.2350 -120.2042 348° North 494 568 36,000  Level Oakland Center
Thu 03:21:58 PM 38.3697 -120.2431 347° North 497 572 36,000  Level Oakland Center
Thu 03:22:59 PM 38.5042 -120.2797 348° North 497 572 36,000  Level Oakland Center
Thu 03:24:01 PM 38.6675 -120.3267 347° North 502 578 36,000  Level Oakland Center
Thu 03:25:03 PM 38.8042 -120.3661 347° North 504 580 36,000  Level Oakland Center
Thu 03:26:04 PM 38.9417 -120.4061 347° North 507 583 36,000  Level Oakland Center
Thu 03:27:06 PM 39.0808 -120.4453 348° North 512 589 36,000  Level Oakland Center
Thu 03:28:08 PM 39.2192 -120.4858 347° North 513 590 36,000  Level Oakland Center
Thu 03:29:09 PM 39.3594 -120.5267 347° North 517 595 36,000  Level Oakland Center
Thu 03:30:11 PM 39.4992 -120.5669 347° North 517 595 36,000  Level Oakland Center
Thu 03:31:12 PM 39.6667 -120.6178 347° North 517 595 36,000  Level Oakland Center
Thu 03:32:14 PM 39.8064 -120.6578 348° North 516 594 36,000  Level Oakland Center
Thu 03:33:15 PM 39.9461 -120.6992 347° North 515 593 36,000  Level Oakland Center
Thu 03:34:17 PM 40.0853 -120.7392 348° North 513 590 36,000  Level Oakland Center
Thu 03:35:19 PM 40.2253 -120.7806 347° North 517 595 36,000  Level Oakland Center
Thu 03:36:20 PM 40.3644 -120.8233 347° North 517 595 36,000  Level Oakland Center
Thu 03:37:22 PM 40.5006 -120.8639 347° North 509 586 36,000  Level Oakland Center
Thu 03:38:23 PM 40.6464 -120.9083 347° North 525 604 36,000  Level Oakland Center
Thu 03:39:21 PM 40.7853 -120.9503 347° North 514 592 36,000  Level Seattle Center
Thu 03:40:22 PM 40.9250 -120.9944 347° North 518 596 36,000 49 Level Seattle Center
Thu 03:41:24 PM 41.0650 -121.0381 347° North 517 595 36,100  Climbing Seattle Center
Thu 03:42:25 PM 41.2344 -121.0892 347° North 523 602 36,000 -49 Descending Seattle Center
Thu 03:43:26 PM 41.3739 -121.1333 347° North 520 598 36,000  Level Seattle Center
Thu 03:44:27 PM 41.5136 -121.1764 347° North 518 596 36,000  Level Seattle Center
Thu 03:45:28 PM 41.6536 -121.2211 347° North 520 598 36,000  Level Seattle Center
Thu 03:46:30 PM 41.7908 -121.2644 347° North 510 587 36,000  Level Seattle Center
Thu 03:47:31 PM 41.9283 -121.3058 347° North 508 585 36,000  Level Seattle Center
Thu 03:48:32 PM 42.0661 -121.3503 347° North 514 592 36,000  Level Seattle Center
Thu 03:49:33 PM 42.2011 -121.3942 346° North 506 582 36,000  Level Seattle Center
Thu 03:50:34 PM 42.3650 -121.4456 347° North 507 583 36,000  Level Seattle Center
Thu 03:51:36 PM 42.5019 -121.4931 346° North 511 588 36,000  Level Seattle Center
Thu 03:52:37 PM 42.6386 -121.5347 347° North 506 582 36,000  Level Seattle Center
Thu 03:53:38 PM 42.7747 -121.5783 347° North 506 582 36,000 -49 Level Seattle Center
Thu 03:54:39 PM 42.9100 -121.6236 346° North 506 582 35,900  Descending Seattle Center
Thu 03:55:40 PM 43.0458 -121.6683 346° North 504 580 36,000 49 Climbing Seattle Center
Thu 03:56:41 PM 43.1819 -121.7131 347° North 505 581 36,000  Level Seattle Center
Thu 03:57:43 PM 43.3189 -121.7583 346° North 507 583 36,000  Level Seattle Center
Thu 03:58:46 PM 43.4861 -121.8142 346° North 516 594 36,000  Level Seattle Center
Thu 03:59:47 PM 43.6269 -121.8608 347° North 522 601 36,000  Level Seattle Center
Thu 04:00:48 PM 43.7719 -121.9064 347° North 528 608 36,000  Level Seattle Center
Thu 04:01:49 PM 43.9158 -121.9525 347° North 532 612 36,000  Level Seattle Center
Thu 04:02:51 PM 44.0575 -122.0019 346° North 529 609 36,000  Level Seattle Center
Thu 04:03:52 PM 44.1975 -122.0503 346° North 524 603 36,000  Level Seattle Center
Thu 04:04:53 PM 44.3386 -122.0964 347° North 523 602 36,000  Level Seattle Center
Thu 04:05:54 PM 44.4758 -122.1436 346° North 517 595 36,000  Level Seattle Center
Thu 04:06:55 PM 44.6303 -122.2125 342° North 488 562 36,000  Level Seattle Center
Thu 04:07:56 PM 44.7397 -122.3119 327° Northwest 472 543 36,000  Level Seattle Center
Thu 04:08:57 PM 44.8497 -122.4117 327° Northwest 472 543 36,000  Level Seattle Center
Thu 04:09:59 PM 44.9503 -122.5053 327° Northwest 469 540 36,000  Level Seattle Center
Thu 04:11:00 PM 45.0733 -122.5744 338° Northwest 492 566 36,000  Level Seattle Center
Thu 04:12:01 PM 45.2086 -122.5781 359° North 495 570 36,000  Level Seattle Center
Thu 04:13:02 PM 45.3444 -122.5819 359° North 492 566 36,000 -49 Level Seattle Center
Thu 04:14:03 PM 45.5069 -122.5861 359° North 491 565 35,900  Descending Seattle Center
Thu 04:15:04 PM 45.6375 -122.5883 359° North 477 549 36,000 49 Climbing Seattle Center
Thu 04:16:05 PM 45.7672 -122.5958 358° North 471 542 36,000 -836 Level Seattle Center
Thu 04:17:06 PM 45.8972 -122.6269 351° North 475 547 34,300 -2,262 Descending Seattle Center
Thu 04:18:07 PM 46.0317 -122.6608 350° North 489 563 31,400 -2,705 Descending Seattle Center
Thu 04:19:08 PM 46.1653 -122.6925 351° North 489 563 28,800 -2,508 Descending Seattle Center
Thu 04:20:09 PM 46.2903 -122.7181 352° North 467 537 26,300 -2,607 Descending Seattle Center
Thu 04:21:10 PM 46.4328 -122.7278 357° North 436 502 23,500 -2,390 Descending Seattle Center
Thu 04:22:12 PM 46.5447 -122.7319 359° North 409 471 21,400 -2,020 Descending Seattle Center
Thu 04:22:51 PM 46.6167 -122.7347 358° North 403 464 20,100 -1,967 Descending Seattle Center
Thu 04:24:14 PM 46.7558 -122.6831 14° North 376 433 17,400 -1,875 Descending Seattle Center
Thu 04:25:15 PM 46.8319 -122.6067 34° Northeast 334 384 15,600 -1,574 Descending Seattle Center
Thu 04:26:16 PM 46.9314 -122.5642 16° North 347 399 14,200 -1,279 Descending Seattle Center
Thu 04:27:17 PM 47.0236 -122.5253 16° North 343 395 13,000 -1,246 Descending Seattle Center
Thu 04:28:26 PM 47.1278 -122.4917 12° North 333 383 11,500 -1,230 Descending Seattle Center
Thu 04:29:19 PM 47.2036 -122.4778 North 324 373 10,500 -1,263 Descending Seattle Center
Thu 04:30:20 PM 47.2925 -122.4650 North 302 348 9,100 -1,230 Descending Seattle Center
Thu 04:31:21 PM 47.3744 -122.4542 North 296 341 8,000 -1,426 Descending Seattle Center
Thu 04:32:22 PM 47.4492 -122.4556 359° North 270 311 6,200 -1,623 Descending Seattle Center
Thu 04:33:23 PM 47.5169 -122.4553 360° North 243 280 4,700 -1,475 Descending Seattle Center
Thu 04:34:24 PM 47.5744 -122.4550 360° North 209 241 3,200 -829 Descending Seattle Center
Thu 04:35:26 PM 47.5942 -122.3783 69° East 227 261 3,000 -537 Descending Seattle Center
Thu 04:36:27 PM 47.5681 -122.3092 119° Southeast 221 254 2,100 -787 Descending Seattle Center
Thu 04:37:28 PM 47.5069 -122.3178 185° South 204 235 1,400 -738 Descending Seattle Center
Thu 04:38:29 PM 47.4653 -122.3181 180° South 152 175 600 -492 Descending Seattle Center
Thu 04:39:30 PM 47.4258 -122.3186 181° South 147 169 400 -197 Descending Seattle Center

Login

Don't have an account? Register now (free) for customized features, flight alerts, and more!